createdAt,value
2022-09-16T00:01:00.247Z,70.86
2022-09-16T00:03:29.475Z,69.63
2022-09-16T00:05:57.290Z,68.42
2022-09-16T00:08:25.084Z,66.96
2022-09-16T00:10:53.054Z,66.53
2022-09-16T00:13:21.175Z,66.09
2022-09-16T00:15:51.845Z,65.83
2022-09-16T00:18:20.298Z,65.54
2022-09-16T00:20:51.291Z,65.68
2022-09-16T00:23:20.537Z,65.30
2022-09-16T00:25:52.975Z,65.67
2022-09-16T00:28:21.668Z,66.66
2022-09-16T00:30:49.701Z,66.33
2022-09-16T00:33:17.683Z,66.68
2022-09-16T00:35:45.491Z,66.65
2022-09-16T00:38:14.912Z,67.08
2022-09-16T00:40:47.263Z,66.85
2022-09-16T00:43:16.171Z,66.82
2022-09-16T00:45:47.712Z,67.14
2022-09-16T00:48:22.166Z,67.34
2022-09-16T00:50:52.194Z,67.05
2022-09-16T00:53:24.681Z,65.89
2022-09-16T00:55:54.635Z,66.10
2022-09-16T00:58:26.770Z,66.38
2022-09-16T01:00:54.629Z,66.38
2022-09-16T01:03:23.025Z,66.37
2022-09-16T01:05:51.348Z,66.25
2022-09-16T01:08:19.338Z,65.90
2022-09-16T01:10:48.558Z,65.82
2022-09-16T01:13:17.226Z,66.38
2022-09-16T01:15:55.785Z,66.85
2022-09-16T01:18:32.278Z,66.78
2022-09-16T01:21:09.792Z,67.16
2022-09-16T01:24:05.333Z,67.00
2022-09-16T01:26:58.032Z,68.12
2022-09-16T01:29:40.017Z,68.54
2022-09-16T01:32:15.681Z,69.14
2022-09-16T01:34:53.466Z,69.80
2022-09-16T01:37:30.091Z,70.15
2022-09-16T01:40:08.546Z,69.90
2022-09-16T01:42:43.617Z,70.45
2022-09-16T01:45:19.262Z,70.19
2022-09-16T01:47:56.012Z,70.15
2022-09-16T01:50:28.782Z,70.19
2022-09-16T01:53:10.074Z,70.19
2022-09-16T01:55:42.123Z,70.45
2022-09-16T01:58:16.929Z,70.57
2022-09-16T02:00:47.350Z,70.48
2022-09-16T02:03:24.210Z,70.23
2022-09-16T02:05:57.085Z,70.48
2022-09-16T02:08:33.258Z,70.32
2022-09-16T02:11:05.153Z,70.17
2022-09-16T02:13:36.824Z,70.86
2022-09-16T02:16:09.165Z,70.91
2022-09-16T02:18:42.468Z,71.08
2022-09-16T02:21:14.788Z,71.28
2022-09-16T02:23:46.970Z,71.39
2022-09-16T02:26:20.536Z,71.07
2022-09-16T02:28:51.608Z,71.51
2022-09-16T02:31:23.633Z,72.13
2022-09-16T02:33:57.066Z,72.04
2022-09-16T02:36:27.765Z,72.44
2022-09-16T02:39:01.561Z,72.88
2022-09-16T02:41:29.604Z,73.42
2022-09-16T02:43:57.498Z,73.37
2022-09-16T02:46:38.379Z,73.68
2022-09-16T02:49:13.996Z,73.91
2022-09-16T02:51:49.053Z,74.52
2022-09-16T02:54:24.914Z,74.38
2022-09-16T02:56:55.380Z,74.22
2022-09-16T02:59:25.265Z,74.05
2022-09-16T03:01:53.153Z,74.12
2022-09-16T03:04:22.677Z,74.09
2022-09-16T03:06:50.561Z,74.31
2022-09-16T03:09:23.752Z,74.38
2022-09-16T03:12:12.823Z,74.03
2022-09-16T03:14:55.232Z,74.05
2022-09-16T03:17:39.003Z,74.18
2022-09-16T03:20:17.340Z,74.00
2022-09-16T03:22:51.973Z,74.46
2022-09-16T03:25:33.684Z,74.52
2022-09-16T03:28:07.953Z,74.33
2022-09-16T03:30:44.203Z,75.01
2022-09-16T03:33:20.509Z,75.16
2022-09-16T03:35:52.394Z,74.88
2022-09-16T03:38:21.144Z,74.84
2022-09-16T03:40:49.406Z,74.87
2022-09-16T03:43:18.276Z,74.70
2022-09-16T03:45:46.178Z,74.58
2022-09-16T03:48:14.392Z,74.97
2022-09-16T03:50:42.336Z,74.86
2022-09-16T03:53:11.559Z,74.97
2022-09-16T03:55:39.399Z,74.37
2022-09-16T03:58:07.190Z,74.51
2022-09-16T04:00:34.997Z,74.28
2022-09-16T04:03:03.341Z,74.55
2022-09-16T04:05:31.242Z,74.71
2022-09-16T04:07:59.041Z,74.61
2022-09-16T04:10:28.304Z,74.93
2022-09-16T04:12:58.833Z,74.98
2022-09-16T04:15:26.756Z,75.36
2022-09-16T04:17:56.145Z,75.56
2022-09-16T04:20:24.784Z,76.57
2022-09-16T04:22:52.633Z,76.65
2022-09-16T04:25:20.444Z,76.11
2022-09-16T04:27:49.578Z,76.19
2022-09-16T04:30:17.412Z,75.83
2022-09-16T04:32:45.185Z,76.22
2022-09-16T04:35:13.082Z,76.06
2022-09-16T04:37:40.846Z,75.74
2022-09-16T04:40:09.187Z,75.90
2022-09-16T04:42:37.031Z,75.89
2022-09-16T04:45:07.665Z,76.03
2022-09-16T04:47:35.480Z,76.14
2022-09-16T04:50:03.280Z,76.17
2022-09-16T04:52:31.538Z,76.04
2022-09-16T04:54:59.579Z,76.18
2022-09-16T04:57:27.471Z,76.25
2022-09-16T04:59:55.258Z,75.74
2022-09-16T05:02:24.461Z,75.27
2022-09-16T05:04:52.277Z,74.98
2022-09-16T05:07:20.064Z,74.98
2022-09-16T05:09:47.880Z,75.16
2022-09-16T05:12:15.933Z,74.67
2022-09-16T05:14:43.733Z,74.58
2022-09-16T05:17:19.305Z,74.30
2022-09-16T05:20:00.799Z,74.55
2022-09-16T05:22:28.901Z,74.80
2022-09-16T05:24:56.723Z,75.68
2022-09-16T05:27:27.915Z,75.63
2022-09-16T05:29:55.752Z,75.37
2022-09-16T05:32:23.668Z,75.20
2022-09-16T05:34:51.568Z,74.89
2022-09-16T05:37:20.762Z,74.81
2022-09-16T05:39:49.258Z,74.58
2022-09-16T05:42:17.120Z,75.09
2022-09-16T05:44:45.041Z,75.36
2022-09-16T05:47:12.803Z,74.11
2022-09-16T05:49:40.619Z,73.80
2022-09-16T05:52:08.411Z,73.69
2022-09-16T05:54:37.749Z,73.06
2022-09-16T05:57:07.214Z,73.25
2022-09-16T05:59:35.549Z,73.31
2022-09-16T06:02:03.491Z,72.88
2022-09-16T06:04:31.400Z,72.27
2022-09-16T06:06:59.209Z,72.01
2022-09-16T06:09:27.349Z,70.48
2022-09-16T06:12:01.634Z,70.01
2022-09-16T06:14:30.325Z,69.44
2022-09-16T06:16:58.227Z,69.07
2022-09-16T06:19:26.017Z,68.48
2022-09-16T06:21:53.861Z,67.31
2022-09-16T06:24:22.119Z,66.36
2022-09-16T06:26:50.627Z,66.62
2022-09-16T06:29:19.888Z,66.30
2022-09-16T06:31:47.684Z,66.38
2022-09-16T06:34:18.334Z,66.11
2022-09-16T06:36:46.237Z,66.06
2022-09-16T06:39:15.145Z,66.06
2022-09-16T06:41:43.001Z,66.08
2022-09-16T06:44:11.209Z,65.91
2022-09-16T06:46:40.354Z,65.58
2022-09-16T06:49:10.857Z,65.82
2022-09-16T06:51:38.658Z,65.33
2022-09-16T06:54:09.461Z,64.75
2022-09-16T06:56:39.532Z,64.87
2022-09-16T06:59:07.823Z,64.96
2022-09-16T07:01:37.404Z,64.87
2022-09-16T07:04:10.366Z,64.35
2022-09-16T07:07:07.572Z,63.98
2022-09-16T07:09:27.164Z,63.26
2022-09-16T07:11:55.276Z,63.66
2022-09-16T07:14:23.488Z,63.43
2022-09-16T07:16:51.424Z,63.02
2022-09-16T07:19:20.688Z,62.79
2022-09-16T07:21:48.514Z,62.34
2022-09-16T07:24:16.565Z,62.05
2022-09-16T07:26:45.692Z,61.74
2022-09-16T07:29:15.437Z,61.74
2022-09-16T07:31:43.562Z,61.52
2022-09-16T07:34:13.508Z,60.71
2022-09-16T07:36:44.252Z,59.99
2022-09-16T07:39:13.357Z,59.10
2022-09-16T07:41:42.820Z,58.87
2022-09-16T07:44:13.555Z,58.64
2022-09-16T07:46:41.839Z,59.12
2022-09-16T07:49:12.273Z,59.77
2022-09-16T07:51:40.309Z,59.76
2022-09-16T07:54:11.866Z,60.32
2022-09-16T07:56:41.012Z,60.40
2022-09-16T07:59:15.922Z,60.68
2022-09-16T08:01:47.436Z,60.99
2022-09-16T08:04:15.566Z,60.98
2022-09-16T08:06:43.358Z,60.39
2022-09-16T08:09:38.717Z,60.12
2022-09-16T08:12:02.844Z,60.42
2022-09-16T08:14:30.694Z,60.63
2022-09-16T08:16:58.766Z,60.83
2022-09-16T08:19:26.590Z,60.39
2022-09-16T08:21:54.468Z,60.91
2022-09-16T08:24:23.733Z,60.09
2022-09-16T08:26:51.674Z,60.29
2022-09-16T08:29:19.573Z,59.83
2022-09-16T08:31:47.465Z,59.62
2022-09-16T08:34:15.951Z,60.16
2022-09-16T08:36:44.405Z,60.44
2022-09-16T08:39:12.853Z,60.34
2022-09-16T08:41:55.455Z,60.04
2022-09-16T08:44:34.495Z,59.71
2022-09-16T08:47:06.248Z,59.31
2022-09-16T08:49:38.267Z,59.36
2022-09-16T08:52:13.385Z,58.84
2022-09-16T08:54:45.137Z,58.46
2022-09-16T08:57:18.876Z,58.47
2022-09-16T08:59:50.706Z,58.31
2022-09-16T09:02:38.695Z,58.55
2022-09-16T09:05:16.241Z,58.05
2022-09-16T09:07:54.610Z,58.15
2022-09-16T09:10:30.241Z,58.04
2022-09-16T09:13:10.137Z,57.08
2022-09-16T09:15:44.402Z,57.10
2022-09-16T09:18:34.766Z,56.83
2022-09-16T09:21:18.189Z,56.59
2022-09-16T09:24:06.778Z,55.71
2022-09-16T09:26:48.046Z,55.26
2022-09-16T09:29:42.752Z,53.69
2022-09-16T09:32:22.719Z,50.81
2022-09-16T09:35:07.145Z,49.74
2022-09-16T09:37:48.360Z,49.11
2022-09-16T09:40:21.731Z,48.64
2022-09-16T09:42:53.577Z,49.15
2022-09-16T09:45:29.260Z,48.99
2022-09-16T09:48:02.215Z,49.40
2022-09-16T09:50:34.624Z,49.76
2022-09-16T09:53:13.177Z,48.96
2022-09-16T09:55:42.967Z,48.55
2022-09-16T09:58:22.423Z,48.66
2022-09-16T10:00:53.087Z,48.78
2022-09-16T10:03:21.292Z,48.86
2022-09-16T10:05:49.433Z,49.03
2022-09-16T10:08:27.141Z,49.64
2022-09-16T10:10:56.668Z,49.70
2022-09-16T10:13:26.601Z,50.69
2022-09-16T10:16:10.492Z,50.26
2022-09-16T10:18:38.957Z,49.94
2022-09-16T10:21:08.741Z,50.57
2022-09-16T10:23:39.036Z,50.17
2022-09-16T10:26:21.488Z,50.06
2022-09-16T10:29:03.298Z,49.85
2022-09-16T10:31:37.586Z,49.86
2022-09-16T10:34:13.770Z,49.92
2022-09-16T10:36:41.573Z,50.35
2022-09-16T10:39:23.951Z,51.08
2022-09-16T10:41:51.752Z,51.37
2022-09-16T10:44:27.071Z,51.46
2022-09-16T10:47:00.070Z,50.10
2022-09-16T10:49:36.305Z,50.19
2022-09-16T10:52:19.627Z,50.05
2022-09-16T10:54:47.557Z,50.34
2022-09-16T10:57:28.727Z,50.50
2022-09-16T11:00:14.130Z,50.73
2022-09-16T11:03:01.569Z,50.35
2022-09-16T11:05:34.583Z,50.45
2022-09-16T11:08:13.791Z,50.49
2022-09-16T11:10:49.717Z,50.32
2022-09-16T11:13:33.135Z,50.25
2022-09-16T11:16:15.108Z,50.68
2022-09-16T11:18:54.854Z,50.88
2022-09-16T11:21:46.092Z,50.70
2022-09-16T11:24:35.925Z,50.53
2022-09-16T11:27:12.262Z,50.33
2022-09-16T11:29:51.906Z,50.44
2022-09-16T11:32:27.448Z,50.60
2022-09-16T11:35:17.537Z,50.78
2022-09-16T11:37:50.717Z,51.42
2022-09-16T11:40:30.007Z,52.02
2022-09-16T11:43:06.426Z,52.22
2022-09-16T11:45:44.297Z,52.39
2022-09-16T11:48:35.298Z,51.95
2022-09-16T11:51:12.589Z,52.86
2022-09-16T11:54:04.565Z,52.28
2022-09-16T11:56:40.180Z,52.16
2022-09-16T11:59:16.124Z,52.03
2022-09-16T12:01:47.098Z,52.45
2022-09-16T12:04:21.745Z,52.89
2022-09-16T12:06:56.950Z,53.50
2022-09-16T12:09:32.736Z,53.48
2022-09-16T12:12:09.736Z,52.99
2022-09-16T12:14:42.675Z,53.10
2022-09-16T12:17:16.028Z,52.77
2022-09-16T12:19:48.780Z,52.11
2022-09-16T12:22:22.979Z,52.22
2022-09-16T12:24:57.591Z,52.57
2022-09-16T12:27:38.475Z,52.85
2022-09-16T12:30:14.181Z,53.36
2022-09-16T12:32:50.397Z,53.51
2022-09-16T12:35:25.086Z,53.68
2022-09-16T12:37:55.334Z,53.45
2022-09-16T12:40:26.363Z,53.07
2022-09-16T12:43:32.840Z,52.55
2022-09-16T12:46:17.947Z,51.77
2022-09-16T12:49:16.917Z,51.83
2022-09-16T12:52:12.183Z,51.31
2022-09-16T12:55:10.812Z,51.27
2022-09-16T12:57:52.662Z,51.34
2022-09-16T13:00:23.144Z,51.74
2022-09-16T13:02:53.979Z,51.84
2022-09-16T13:05:32.392Z,52.09
2022-09-16T13:08:06.590Z,52.58
2022-09-16T13:11:00.674Z,52.92
2022-09-16T13:13:33.504Z,52.82
2022-09-16T13:16:03.578Z,53.03
2022-09-16T13:18:44.692Z,53.58
2022-09-16T13:21:26.195Z,53.88
2022-09-16T13:24:02.752Z,53.84
2022-09-16T13:26:41.827Z,53.72
2022-09-16T13:29:32.343Z,53.62
2022-09-16T13:32:00.611Z,53.65
2022-09-16T13:34:28.400Z,53.75
2022-09-16T13:36:56.225Z,53.31
2022-09-16T13:39:31.788Z,53.55
2022-09-16T13:42:12.373Z,53.65
2022-09-16T13:44:42.718Z,53.94
2022-09-16T13:47:18.903Z,53.73
2022-09-16T13:49:50.751Z,53.88
2022-09-16T13:52:22.277Z,54.16
2022-09-16T13:58:00.155Z,54.18
2022-09-16T14:00:35.992Z,54.23
2022-09-16T14:03:27.927Z,54.23
2022-09-16T14:06:23.596Z,54.62
2022-09-16T14:08:59.807Z,54.67
2022-09-16T14:11:37.370Z,54.11
2022-09-16T14:14:30.006Z,54.93
2022-09-16T14:17:04.189Z,55.12
2022-09-16T14:19:36.721Z,55.04
2022-09-16T14:22:06.684Z,54.74
2022-09-16T14:24:36.327Z,54.69
2022-09-16T14:27:04.742Z,54.52
2022-09-16T14:29:33.925Z,54.55
2022-09-16T14:32:04.924Z,54.69
2022-09-16T14:34:36.309Z,54.99
2022-09-16T14:37:06.103Z,55.33
2022-09-16T14:39:35.558Z,55.98
2022-09-16T14:42:07.269Z,56.17
2022-09-16T14:44:40.109Z,56.28
2022-09-16T14:47:29.451Z,56.23
2022-09-16T14:50:04.651Z,55.72
2022-09-16T14:52:34.212Z,55.82
2022-09-16T14:55:02.798Z,55.81
2022-09-16T14:57:33.366Z,56.08
2022-09-16T15:00:10.441Z,56.36
2022-09-16T15:02:45.707Z,56.54
2022-09-16T15:05:20.742Z,56.93
2022-09-16T15:08:09.951Z,57.04
2022-09-16T15:10:51.602Z,57.08
2022-09-16T15:13:22.380Z,57.14
2022-09-16T15:15:56.043Z,57.18
2022-09-16T15:18:28.585Z,57.42
2022-09-16T15:21:04.698Z,57.39
2022-09-16T15:23:33.769Z,57.51
2022-09-16T15:26:17.917Z,57.27
2022-09-16T15:28:54.216Z,57.20
2022-09-16T15:31:34.552Z,57.11
2022-09-16T15:34:05.600Z,57.14
2022-09-16T15:36:39.156Z,57.33
2022-09-16T15:39:22.992Z,56.88
2022-09-16T15:41:51.020Z,57.05
2022-09-16T15:44:26.329Z,56.95
2022-09-16T15:46:55.625Z,56.93
2022-09-16T15:49:25.898Z,56.94
2022-09-16T15:51:53.924Z,57.22
2022-09-16T15:54:27.341Z,57.52
2022-09-16T15:57:02.488Z,57.46
2022-09-16T15:59:34.628Z,57.42
2022-09-16T16:02:07.842Z,57.47
2022-09-16T16:04:36.093Z,57.67
2022-09-16T16:07:06.068Z,57.86
2022-09-16T16:09:40.501Z,58.27
2022-09-16T16:12:11.319Z,58.42
2022-09-16T16:14:40.267Z,58.74
2022-09-16T16:17:13.865Z,58.76
2022-09-16T16:19:42.969Z,58.80
2022-09-16T16:22:11.155Z,59.01
2022-09-16T16:24:39.583Z,59.21
2022-09-16T16:27:08.485Z,59.35
2022-09-16T16:29:36.652Z,59.36
2022-09-16T16:32:08.084Z,59.53
2022-09-16T16:34:39.099Z,59.83
2022-09-16T16:37:08.480Z,59.97
2022-09-16T16:39:36.695Z,60.11
2022-09-16T16:42:05.874Z,60.32
2022-09-16T16:44:34.444Z,60.46
2022-09-16T16:47:02.685Z,60.45
2022-09-16T16:49:30.581Z,61.09
2022-09-16T16:51:59.725Z,60.57
2022-09-16T16:54:28.863Z,60.87
2022-09-16T16:56:57.036Z,60.96
2022-09-16T16:59:26.320Z,61.10
2022-09-16T17:01:55.575Z,61.46
2022-09-16T17:04:24.884Z,61.77
2022-09-16T17:07:08.518Z,61.82
2022-09-16T17:09:42.313Z,62.53
2022-09-16T17:12:10.637Z,62.25
2022-09-16T17:14:38.775Z,62.19
2022-09-16T17:17:06.861Z,62.36
2022-09-16T17:19:34.653Z,62.68
2022-09-16T17:22:02.525Z,62.62
2022-09-16T17:24:30.546Z,62.48
2022-09-16T17:27:00.197Z,62.65
2022-09-16T17:29:28.288Z,62.86
2022-09-16T17:31:57.013Z,63.06
2022-09-16T17:34:26.260Z,63.24
2022-09-16T17:36:55.059Z,63.81
2022-09-16T17:39:23.394Z,63.67
2022-09-16T17:41:51.460Z,63.92
2022-09-16T17:44:20.693Z,64.13
2022-09-16T17:46:48.759Z,64.14
2022-09-16T17:49:18.408Z,64.31
2022-09-16T17:51:46.673Z,64.60
2022-09-16T17:54:14.749Z,64.57
2022-09-16T17:56:43.518Z,64.67
2022-09-16T17:59:12.261Z,64.75
2022-09-16T18:01:41.552Z,64.92
2022-09-16T18:04:09.386Z,65.12
2022-09-16T18:06:42.070Z,65.12
2022-09-16T18:09:09.907Z,65.12
2022-09-16T18:11:39.027Z,65.34
2022-09-16T18:14:08.880Z,65.42
2022-09-16T18:16:36.755Z,65.49
2022-09-16T18:19:06.286Z,65.76
2022-09-16T18:21:34.508Z,65.65
2022-09-16T18:24:03.840Z,65.56
2022-09-16T18:26:32.756Z,65.98
2022-09-16T18:29:10.015Z,65.89
2022-09-16T18:31:39.400Z,66.13
2022-09-16T18:34:08.936Z,66.74
2022-09-16T18:36:39.043Z,66.99
2022-09-16T18:39:08.510Z,67.62
2022-09-16T18:41:38.403Z,67.50
2022-09-16T18:44:11.885Z,68.16
2022-09-16T18:46:39.874Z,68.24
2022-09-16T18:49:12.472Z,67.99
2022-09-16T18:51:42.991Z,67.63
2022-09-16T18:54:16.358Z,68.12
2022-09-16T18:56:44.389Z,68.17
2022-09-16T18:59:23.615Z,68.30
2022-09-16T19:01:53.677Z,68.10
2022-09-16T19:04:25.408Z,68.50
2022-09-16T19:06:55.490Z,69.15
2022-09-16T19:09:25.259Z,69.46
2022-09-16T19:11:54.576Z,69.59
2022-09-16T19:14:24.742Z,69.78
2022-09-16T19:16:53.211Z,69.77
2022-09-16T19:19:23.325Z,69.57
2022-09-16T19:21:51.378Z,70.06
2022-09-16T19:24:21.441Z,69.63
2022-09-16T19:26:50.917Z,70.13
2022-09-16T19:29:19.610Z,69.59
2022-09-16T19:31:50.046Z,69.69
2022-09-16T19:34:18.469Z,70.03
2022-09-16T19:36:48.057Z,69.97
2022-09-16T19:39:15.919Z,70.21
2022-09-16T19:41:43.812Z,70.72
2022-09-16T19:44:14.241Z,70.61
2022-09-16T19:46:43.325Z,70.91
2022-09-16T19:49:16.592Z,71.38
2022-09-16T19:51:44.848Z,71.94
2022-09-16T19:54:14.521Z,72.11
2022-09-16T19:56:45.019Z,72.73
2022-09-16T19:59:16.497Z,73.16
2022-09-16T20:01:44.442Z,73.12
2022-09-16T20:04:12.292Z,73.40
2022-09-16T20:06:42.020Z,73.42
2022-09-16T20:09:12.604Z,74.11
2022-09-16T20:11:44.013Z,74.24
2022-09-16T20:14:15.533Z,75.19
2022-09-16T20:16:43.664Z,75.90
2022-09-16T20:19:13.674Z,76.48
2022-09-16T20:21:42.311Z,76.95
2022-09-16T20:24:15.846Z,77.32
2022-09-16T20:26:45.219Z,77.39
2022-09-16T20:29:13.030Z,78.05
2022-09-16T20:31:40.895Z,77.89
2022-09-16T20:34:08.724Z,77.81
2022-09-16T20:36:39.010Z,78.20
2022-09-16T20:39:08.850Z,78.25
2022-09-16T20:41:38.280Z,78.62
2022-09-16T20:44:07.923Z,78.59
2022-09-16T20:46:38.703Z,78.85
2022-09-16T20:49:10.411Z,79.13
2022-09-16T20:51:38.458Z,79.99
2022-09-16T20:54:08.969Z,79.83
2022-09-16T20:56:39.211Z,79.99
2022-09-16T20:59:09.786Z,80.25
2022-09-16T21:01:39.091Z,80.21
2022-09-16T21:04:08.744Z,80.16
2022-09-16T21:06:37.036Z,80.53
2022-09-16T21:09:07.423Z,80.53
2022-09-16T21:11:36.121Z,80.59
2022-09-16T21:14:07.591Z,80.31
2022-09-16T21:16:38.425Z,80.83
2022-09-16T21:19:09.444Z,81.18
2022-09-16T21:21:39.119Z,80.83
2022-09-16T21:24:08.514Z,80.36
2022-09-16T21:26:38.065Z,80.12
2022-09-16T21:29:09.857Z,80.47
2022-09-16T21:31:40.802Z,80.13
2022-09-16T21:34:12.881Z,80.10
2022-09-16T21:36:40.928Z,79.87
2022-09-16T21:39:09.187Z,79.97
2022-09-16T21:41:37.746Z,80.17
2022-09-16T21:44:05.716Z,79.90
2022-09-16T21:46:39.519Z,79.70
2022-09-16T21:49:14.357Z,79.01
2022-09-16T21:51:42.168Z,78.86
2022-09-16T21:54:11.076Z,77.45
2022-09-16T21:56:40.124Z,76.24
2022-09-16T21:59:08.595Z,75.54
2022-09-16T22:01:37.624Z,74.86
2022-09-16T22:04:07.960Z,73.58
2022-09-16T22:06:37.183Z,72.66
2022-09-16T22:09:07.820Z,72.24
2022-09-16T22:11:37.606Z,71.40
2022-09-16T22:14:06.233Z,70.93
2022-09-16T22:16:37.206Z,70.51
2022-09-16T22:19:08.108Z,69.85
2022-09-16T22:21:39.241Z,70.07
2022-09-16T22:24:07.598Z,69.48
2022-09-16T22:26:35.804Z,68.83
2022-09-16T22:29:03.711Z,68.69
2022-09-16T22:31:33.884Z,68.39
2022-09-16T22:34:02.715Z,68.34
2022-09-16T22:36:32.254Z,68.32
2022-09-16T22:39:04.508Z,67.76
2022-09-16T22:41:33.126Z,67.39
2022-09-16T22:44:00.993Z,67.74
2022-09-16T22:46:30.594Z,67.79
2022-09-16T22:49:00.113Z,67.78
2022-09-16T22:51:28.882Z,67.84
2022-09-16T22:53:57.301Z,68.05
2022-09-16T22:56:29.341Z,67.84
2022-09-16T22:58:57.963Z,68.00
2022-09-16T23:01:27.657Z,67.91
2022-09-16T23:03:57.268Z,67.22
2022-09-16T23:06:26.434Z,67.25
2022-09-16T23:09:14.119Z,67.43
2022-09-16T23:11:43.536Z,66.94
2022-09-16T23:14:14.705Z,66.57
2022-09-16T23:16:42.649Z,65.94
2022-09-16T23:19:12.197Z,65.53
2022-09-16T23:21:40.588Z,64.82
2022-09-16T23:24:10.511Z,65.06
2022-09-16T23:26:39.336Z,64.92
2022-09-16T23:29:10.975Z,64.88
2022-09-16T23:31:41.278Z,64.82
2022-09-16T23:34:12.220Z,65.14
2022-09-16T23:36:41.548Z,65.71
2022-09-16T23:39:10.173Z,66.07
2022-09-16T23:41:38.414Z,66.45
2022-09-16T23:44:06.345Z,66.28
2022-09-16T23:46:36.031Z,66.43
2022-09-16T23:49:04.653Z,66.22
2022-09-16T23:51:32.979Z,66.85
2022-09-16T23:54:01.278Z,66.77
2022-09-16T23:56:29.133Z,67.14
2022-09-16T23:59:00.580Z,67.78
